createdAt,value
2023-02-28T00:01:35.370Z,102420.93
2023-02-28T00:04:03.874Z,102421.95
2023-02-28T00:06:32.456Z,102425.58
2023-02-28T00:09:00.838Z,102424.81
2023-02-28T00:11:29.574Z,102426.36
2023-02-28T00:13:58.321Z,102431.45
2023-02-28T00:16:26.753Z,102439.14
2023-02-28T00:18:55.830Z,102444.75
2023-02-28T00:21:23.990Z,102446.36
2023-02-28T00:23:52.372Z,102447.02
2023-02-28T00:26:21.909Z,102446.94
2023-02-28T00:28:53.967Z,102447.05
2023-02-28T00:31:22.438Z,102451.42
2023-02-28T00:33:52.101Z,102456.69
2023-02-28T00:36:20.427Z,102463.52
2023-02-28T00:38:49.021Z,102463.91
2023-02-28T00:41:17.709Z,102462.79
2023-02-28T00:43:46.199Z,102461.68
2023-02-28T00:46:14.632Z,102461.81
2023-02-28T00:48:43.169Z,102467.42
2023-02-28T00:51:12.070Z,102466.90
2023-02-28T00:53:40.450Z,102467.91
2023-02-28T00:56:09.142Z,102471.25
2023-02-28T00:58:37.746Z,102470.01
2023-02-28T01:01:06.291Z,102471.58
2023-02-28T01:03:35.021Z,102473.85
2023-02-28T01:06:03.603Z,102475.33
2023-02-28T01:08:32.295Z,102481.42
2023-02-28T01:11:09.678Z,102486.52
2023-02-28T01:13:38.630Z,102493.94
2023-02-28T01:16:08.092Z,102497.00
2023-02-28T01:18:38.572Z,102498.86
2023-02-28T01:21:08.851Z,102500.88
2023-02-28T01:23:37.753Z,102503.30
2023-02-28T01:26:08.286Z,102508.91
2023-02-28T01:28:37.081Z,102509.89
2023-02-28T01:31:06.620Z,102513.94
2023-02-28T01:33:35.514Z,102514.76
2023-02-28T01:36:07.369Z,102511.38
2023-02-28T01:38:38.290Z,102505.29
2023-02-28T01:41:08.515Z,102504.69
2023-02-28T01:43:46.105Z,102504.07
2023-02-28T01:46:15.690Z,102497.04
2023-02-28T01:48:59.658Z,102495.42
2023-02-28T01:51:55.927Z,102488.77
2023-02-28T01:54:31.113Z,102481.45
2023-02-28T01:57:12.489Z,102480.36
2023-02-28T01:59:52.449Z,102486.70
2023-02-28T02:02:24.087Z,102482.58
2023-02-28T02:04:55.450Z,102479.29
2023-02-28T02:07:27.826Z,102487.02
2023-02-28T02:10:20.774Z,102489.14
2023-02-28T02:13:10.442Z,102492.31
2023-02-28T02:15:55.836Z,102491.16
2023-02-28T02:18:37.103Z,102491.11
2023-02-28T02:21:27.827Z,102488.33
2023-02-28T02:24:11.623Z,102498.04
2023-02-28T02:27:14.287Z,102501.23
2023-02-28T02:29:55.361Z,102505.97
2023-02-28T02:33:01.608Z,102509.11
2023-02-28T02:36:05.246Z,102510.29
2023-02-28T02:38:59.682Z,102515.89
2023-02-28T02:41:41.261Z,102513.38
2023-02-28T02:44:37.177Z,102516.89
2023-02-28T02:47:12.621Z,102513.70
2023-02-28T02:49:46.222Z,102518.30
2023-02-28T02:52:19.610Z,102524.30
2023-02-28T02:54:56.505Z,102522.20
2023-02-28T02:57:41.871Z,102526.92
2023-02-28T03:00:11.720Z,102530.64
2023-02-28T03:02:41.609Z,102539.48
2023-02-28T03:05:22.068Z,102537.41
2023-02-28T03:07:50.656Z,102544.41
2023-02-28T03:10:37.058Z,102542.70
2023-02-28T03:13:20.085Z,102537.90
2023-02-28T03:16:16.833Z,102538.12
2023-02-28T03:18:52.144Z,102545.17
2023-02-28T03:21:29.850Z,102548.46
2023-02-28T03:24:05.601Z,102546.08
2023-02-28T03:26:37.670Z,102543.89
2023-02-28T03:29:29.588Z,102543.31
2023-02-28T03:32:15.831Z,102545.14
2023-02-28T03:34:55.732Z,102541.16
2023-02-28T03:37:26.725Z,102542.61
2023-02-28T03:40:02.420Z,102544.77
2023-02-28T03:42:35.230Z,102544.11
2023-02-28T03:45:18.036Z,102549.42
2023-02-28T03:47:50.820Z,102546.61
2023-02-28T03:50:30.982Z,102547.04
2023-02-28T03:53:05.919Z,102547.59
2023-02-28T03:55:40.825Z,102546.89
2023-02-28T03:58:26.323Z,102547.89
2023-02-28T04:01:09.104Z,102547.42
2023-02-28T04:03:39.448Z,102550.21
2023-02-28T04:06:16.837Z,102546.64
2023-02-28T04:08:45.380Z,102544.67
2023-02-28T04:11:23.327Z,102541.00
2023-02-28T04:13:53.757Z,102542.48
2023-02-28T04:16:34.398Z,102548.19
2023-02-28T04:19:06.272Z,102558.30
2023-02-28T04:21:37.564Z,102552.27
2023-02-28T04:24:06.938Z,102554.63
2023-02-28T04:26:37.675Z,102555.20
2023-02-28T04:29:07.175Z,102555.25
2023-02-28T04:31:35.725Z,102554.42
2023-02-28T04:34:04.470Z,102551.13
2023-02-28T04:36:36.125Z,102549.84
2023-02-28T04:39:05.294Z,102553.29
2023-02-28T04:41:34.922Z,102554.08
2023-02-28T04:44:03.940Z,102551.64
2023-02-28T04:46:32.961Z,102548.47
2023-02-28T04:49:02.040Z,102556.91
2023-02-28T04:51:36.461Z,102555.12
2023-02-28T04:54:05.026Z,102558.63
2023-02-28T04:56:33.636Z,102561.05
2023-02-28T04:59:01.816Z,102560.48
2023-02-28T05:01:32.511Z,102562.76
2023-02-28T05:04:02.985Z,102566.79
2023-02-28T05:06:34.471Z,102569.41
2023-02-28T05:09:02.726Z,102575.20
2023-02-28T05:11:37.395Z,102578.52
2023-02-28T05:14:08.427Z,102581.91
2023-02-28T05:16:37.186Z,102581.66
2023-02-28T05:19:05.857Z,102581.23
2023-02-28T05:21:39.686Z,102585.91
2023-02-28T05:24:11.860Z,102588.71
2023-02-28T05:26:42.729Z,102592.09
2023-02-28T05:29:11.410Z,102591.13
2023-02-28T05:31:39.758Z,102600.05
2023-02-28T05:34:08.053Z,102600.55
2023-02-28T05:36:38.728Z,102605.07
2023-02-28T05:39:13.400Z,102606.42
2023-02-28T05:41:43.387Z,102609.16
2023-02-28T05:44:12.256Z,102606.61
2023-02-28T05:46:41.243Z,102611.11
2023-02-28T05:49:09.941Z,102610.64
2023-02-28T05:51:41.038Z,102614.91
2023-02-28T05:54:09.662Z,102617.28
2023-02-28T05:56:42.244Z,102623.86
2023-02-28T05:59:15.030Z,102626.04
2023-02-28T06:01:51.405Z,102628.23
2023-02-28T06:04:31.427Z,102631.14
2023-02-28T06:07:00.072Z,102635.43
2023-02-28T06:09:28.530Z,102639.04
2023-02-28T06:12:00.473Z,102638.45
2023-02-28T06:14:28.786Z,102640.50
2023-02-28T06:16:59.180Z,102647.96
2023-02-28T06:19:28.576Z,102642.72
2023-02-28T06:21:58.190Z,102636.75
2023-02-28T06:24:29.265Z,102634.89
2023-02-28T06:27:00.080Z,102626.63
2023-02-28T06:29:34.436Z,102631.65
2023-02-28T06:32:06.617Z,102636.73
2023-02-28T06:34:37.238Z,102630.69
2023-02-28T06:37:05.627Z,102631.73
2023-02-28T06:39:34.618Z,102632.42
2023-02-28T06:42:03.329Z,102626.31
2023-02-28T06:44:36.491Z,102624.08
2023-02-28T06:47:07.049Z,102629.72
2023-02-28T06:49:36.658Z,102631.39
2023-02-28T06:52:05.503Z,102636.63
2023-02-28T06:54:33.729Z,102639.60
2023-02-28T06:57:02.424Z,102642.30
2023-02-28T06:59:31.008Z,102646.02
2023-02-28T07:01:59.524Z,102644.55
2023-02-28T07:04:28.957Z,102644.48
2023-02-28T07:06:58.219Z,102644.93
2023-02-28T07:09:31.292Z,102638.53
2023-02-28T07:12:00.296Z,102638.33
2023-02-28T07:14:28.471Z,102638.66
2023-02-28T07:16:57.068Z,102640.34
2023-02-28T07:19:25.673Z,102640.89
2023-02-28T07:21:53.946Z,102642.13
2023-02-28T07:24:24.981Z,102641.61
2023-02-28T07:26:53.462Z,102645.63
2023-02-28T07:29:22.358Z,102647.13
2023-02-28T07:31:54.371Z,102648.75
2023-02-28T07:34:35.655Z,102649.98
2023-02-28T07:37:06.191Z,102653.11
2023-02-28T07:39:34.729Z,102653.10
2023-02-28T07:42:07.376Z,102649.75
2023-02-28T07:44:35.902Z,102645.00
2023-02-28T07:47:06.026Z,102645.67
2023-02-28T07:49:36.764Z,102648.13
2023-02-28T07:52:07.424Z,102651.66
2023-02-28T07:54:35.690Z,102653.27
2023-02-28T07:57:04.079Z,102657.94
2023-02-28T07:59:32.556Z,102654.50
2023-02-28T08:02:01.017Z,102655.80
2023-02-28T08:04:30.299Z,102657.09
2023-02-28T08:06:58.635Z,102660.00
2023-02-28T08:09:27.435Z,102662.42
2023-02-28T08:11:55.828Z,102666.13
2023-02-28T08:14:23.986Z,102666.64
2023-02-28T08:16:52.373Z,102667.58
2023-02-28T08:19:21.170Z,102667.62
2023-02-28T08:21:49.449Z,102665.88
2023-02-28T08:24:17.729Z,102669.96
2023-02-28T08:26:46.421Z,102666.41
2023-02-28T08:29:14.903Z,102670.61
2023-02-28T08:31:44.037Z,102670.06
2023-02-28T08:34:14.856Z,102674.41
2023-02-28T08:36:46.014Z,102670.19
2023-02-28T08:39:14.686Z,102668.52
2023-02-28T08:41:45.132Z,102668.78
2023-02-28T08:44:13.707Z,102668.83
2023-02-28T08:46:44.545Z,102672.71
2023-02-28T08:49:13.417Z,102673.06
2023-02-28T08:51:41.824Z,102670.96
2023-02-28T08:54:13.495Z,102670.33
2023-02-28T08:56:41.864Z,102664.83
2023-02-28T08:59:10.762Z,102661.39
2023-02-28T09:01:39.255Z,102658.02
2023-02-28T09:04:09.649Z,102654.60
2023-02-28T09:06:38.575Z,102656.84
2023-02-28T09:09:08.580Z,102657.27
2023-02-28T09:11:40.056Z,102660.69
2023-02-28T09:14:08.455Z,102658.48
2023-02-28T09:16:37.101Z,102663.59
2023-02-28T09:19:05.509Z,102659.34
2023-02-28T09:21:33.999Z,102659.14
2023-02-28T09:24:02.185Z,102655.05
2023-02-28T09:26:35.241Z,102649.30
2023-02-28T09:29:12.352Z,102648.13
2023-02-28T09:31:40.738Z,102649.75
2023-02-28T09:34:09.598Z,102654.34
2023-02-28T09:36:45.484Z,102651.08
2023-02-28T09:39:16.724Z,102647.97
2023-02-28T09:41:49.601Z,102650.80
2023-02-28T09:44:41.281Z,102651.98
2023-02-28T09:47:28.979Z,102652.25
2023-02-28T09:50:13.071Z,102653.92
2023-02-28T09:52:42.023Z,102649.89
2023-02-28T09:55:56.750Z,102651.14
2023-02-28T09:58:45.394Z,102646.64
2023-02-28T10:01:26.455Z,102644.88
2023-02-28T10:04:19.054Z,102646.41
2023-02-28T10:06:50.990Z,102643.98
2023-02-28T10:09:25.394Z,102645.25
2023-02-28T10:11:58.972Z,102643.00
2023-02-28T10:14:30.492Z,102645.45
2023-02-28T10:17:22.880Z,102640.04
2023-02-28T10:19:51.072Z,102639.71
2023-02-28T10:22:24.356Z,102641.64
2023-02-28T10:24:55.110Z,102638.27
2023-02-28T10:27:31.568Z,102638.23
2023-02-28T10:30:03.072Z,102629.30
2023-02-28T10:32:35.157Z,102626.30
2023-02-28T10:35:24.452Z,102629.21
2023-02-28T10:37:57.754Z,102624.44
2023-02-28T10:40:26.031Z,102620.32
2023-02-28T10:43:02.099Z,102612.98
2023-02-28T10:45:33.631Z,102610.45
2023-02-28T10:48:26.909Z,102608.90
2023-02-28T10:50:58.896Z,102602.04
2023-02-28T10:54:02.263Z,102597.03
2023-02-28T10:56:32.454Z,102592.84
2023-02-28T10:59:27.886Z,102595.71
2023-02-28T11:01:57.242Z,102594.40
2023-02-28T11:04:33.694Z,102596.76
2023-02-28T11:07:22.954Z,102594.66
2023-02-28T11:09:58.761Z,102594.95
2023-02-28T11:12:34.198Z,102595.04
2023-02-28T11:15:22.966Z,102593.14
2023-02-28T11:17:59.320Z,102593.95
2023-02-28T11:20:34.455Z,102588.91
2023-02-28T11:23:05.636Z,102589.33
2023-02-28T11:25:36.648Z,102586.88
2023-02-28T11:28:23.558Z,102583.73
2023-02-28T11:31:14.949Z,102576.23
2023-02-28T11:33:47.342Z,102574.40
2023-02-28T11:36:22.372Z,102569.01
2023-02-28T11:38:50.970Z,102565.27
2023-02-28T11:42:03.386Z,102565.75
2023-02-28T11:44:58.247Z,102562.91
2023-02-28T11:47:30.112Z,102566.27
2023-02-28T11:50:08.721Z,102562.27
2023-02-28T11:52:52.873Z,102566.00
2023-02-28T11:55:25.246Z,102569.86
2023-02-28T11:58:22.486Z,102569.87
2023-02-28T12:00:50.882Z,102566.59
2023-02-28T12:03:42.675Z,102565.63
2023-02-28T12:06:39.946Z,102567.05
2023-02-28T12:09:12.118Z,102568.46
2023-02-28T12:11:59.123Z,102575.16
2023-02-28T12:15:05.882Z,102570.23
2023-02-28T12:18:08.648Z,102573.57
2023-02-28T12:21:07.529Z,102573.34
2023-02-28T12:24:01.817Z,102575.00
2023-02-28T12:26:50.659Z,102568.67
2023-02-28T12:29:25.579Z,102561.38
2023-02-28T12:32:12.798Z,102564.35
2023-02-28T12:34:47.441Z,102560.19
2023-02-28T12:37:26.353Z,102554.74
2023-02-28T12:40:02.502Z,102551.67
2023-02-28T12:42:36.428Z,102551.34
2023-02-28T12:45:21.406Z,102556.83
2023-02-28T12:47:57.197Z,102554.31
2023-02-28T12:50:27.780Z,102555.39
2023-02-28T12:53:09.566Z,102556.73
2023-02-28T12:56:16.020Z,102560.61
2023-02-28T12:59:24.027Z,102561.55
2023-02-28T13:02:20.590Z,102556.11
2023-02-28T13:05:17.162Z,102553.35
2023-02-28T13:08:28.704Z,102554.00
2023-02-28T13:10:57.321Z,102552.06
2023-02-28T13:13:31.972Z,102550.61
2023-02-28T13:16:01.655Z,102548.79
2023-02-28T13:18:42.995Z,102537.58
2023-02-28T13:21:31.768Z,102542.30
2023-02-28T13:24:05.856Z,102543.30
2023-02-28T13:26:36.944Z,102541.96
2023-02-28T13:29:28.665Z,102542.52
2023-02-28T13:32:09.702Z,102541.17
2023-02-28T13:34:49.379Z,102540.05
2023-02-28T13:37:23.596Z,102540.71
2023-02-28T13:39:57.716Z,102537.23
2023-02-28T13:42:31.933Z,102539.63
2023-02-28T13:45:03.205Z,102532.91
2023-02-28T13:47:40.475Z,102532.65
2023-02-28T13:50:26.767Z,102532.58
2023-02-28T13:53:14.121Z,102531.95
2023-02-28T13:55:54.753Z,102527.27
2023-02-28T13:58:42.674Z,102524.81
2023-02-28T14:01:25.806Z,102525.61
2023-02-28T14:04:12.599Z,102521.69
2023-02-28T14:06:53.159Z,102520.17
2023-02-28T14:09:34.143Z,102526.48
2023-02-28T14:12:47.760Z,102527.88
2023-02-28T14:15:51.454Z,102525.31
2023-02-28T14:18:27.356Z,102527.06
2023-02-28T14:21:01.276Z,102526.00
2023-02-28T14:23:48.984Z,102527.79
2023-02-28T14:26:55.084Z,102523.69
2023-02-28T14:29:46.289Z,102523.73
2023-02-28T14:32:45.775Z,102524.16
2023-02-28T14:35:52.265Z,102525.65
2023-02-28T14:38:31.152Z,102523.51
2023-02-28T14:41:05.473Z,102524.39
2023-02-28T14:43:33.753Z,102523.04
2023-02-28T14:46:06.266Z,102525.33
2023-02-28T14:48:36.864Z,102521.69
2023-02-28T14:51:06.785Z,102522.33
2023-02-28T14:53:38.841Z,102518.78
2023-02-28T14:56:07.646Z,102515.91
2023-02-28T14:58:36.032Z,102514.35
2023-02-28T15:01:05.596Z,102514.02
2023-02-28T15:03:36.699Z,102513.87
2023-02-28T15:06:14.400Z,102513.69
2023-02-28T15:08:42.781Z,102513.30
2023-02-28T15:11:23.400Z,102514.35
2023-02-28T15:13:56.568Z,102515.73
2023-02-28T15:16:24.872Z,102513.05
2023-02-28T15:19:02.209Z,102515.39
2023-02-28T15:21:34.914Z,102511.95
2023-02-28T15:24:08.893Z,102508.60
2023-02-28T15:26:42.212Z,102506.05
2023-02-28T15:29:14.668Z,102504.06
2023-02-28T15:31:57.310Z,102505.59
2023-02-28T15:34:44.293Z,102503.06
2023-02-28T15:38:06.663Z,102500.74
2023-02-28T15:40:42.567Z,102503.52
2023-02-28T15:43:20.042Z,102506.77
2023-02-28T15:46:01.888Z,102507.56
2023-02-28T15:48:38.051Z,102507.02
2023-02-28T15:51:12.730Z,102509.05
2023-02-28T15:54:02.416Z,102509.94
2023-02-28T15:56:32.270Z,102509.70
2023-02-28T15:59:07.293Z,102511.93
2023-02-28T16:01:38.117Z,102508.48
2023-02-28T16:04:20.872Z,102510.35
2023-02-28T16:07:15.587Z,102512.38
2023-02-28T16:09:43.974Z,102518.38
2023-02-28T16:12:14.709Z,102521.52
2023-02-28T16:14:43.838Z,102527.10
2023-02-28T16:17:41.477Z,102530.27
2023-02-28T16:20:21.737Z,102528.90
2023-02-28T16:22:50.607Z,102535.15
2023-02-28T16:25:24.737Z,102532.52
2023-02-28T16:27:58.738Z,102529.69
2023-02-28T16:30:29.691Z,102530.14
2023-02-28T16:32:59.100Z,102529.19
2023-02-28T16:35:27.379Z,102532.69
2023-02-28T16:37:56.066Z,102533.37
2023-02-28T16:40:27.053Z,102537.94
2023-02-28T16:43:00.000Z,102537.65
2023-02-28T16:45:29.922Z,102535.98
2023-02-28T16:47:58.926Z,102537.66
2023-02-28T16:50:30.678Z,102537.90
2023-02-28T16:52:59.061Z,102537.25
2023-02-28T16:55:27.987Z,102540.08
2023-02-28T16:58:01.571Z,102542.67
2023-02-28T17:00:33.275Z,102541.41
2023-02-28T17:03:05.118Z,102542.42
2023-02-28T17:05:39.610Z,102540.97
2023-02-28T17:08:07.791Z,102539.25
2023-02-28T17:10:36.741Z,102541.96
2023-02-28T17:13:14.467Z,102537.38
2023-02-28T17:15:47.703Z,102538.95
2023-02-28T17:18:20.035Z,102537.28
2023-02-28T17:20:48.654Z,102538.09
2023-02-28T17:23:17.129Z,102541.02
2023-02-28T17:25:57.580Z,102539.77
2023-02-28T17:28:26.690Z,102542.73
2023-02-28T17:30:55.211Z,102542.92
2023-02-28T17:33:23.567Z,102539.27
2023-02-28T17:35:52.193Z,102546.27
2023-02-28T17:38:24.108Z,102545.54
2023-02-28T17:40:58.188Z,102542.55
2023-02-28T17:43:28.061Z,102542.85
2023-02-28T17:45:57.387Z,102543.19
2023-02-28T17:48:26.680Z,102548.21
2023-02-28T17:50:55.514Z,102545.88
2023-02-28T17:53:24.325Z,102543.91
2023-02-28T17:55:52.955Z,102543.86
2023-02-28T17:58:21.740Z,102544.84
2023-02-28T18:00:55.022Z,102547.05
2023-02-28T18:03:23.316Z,102548.64
2023-02-28T18:05:52.517Z,102550.07
2023-02-28T18:08:21.015Z,102545.65
2023-02-28T18:10:49.392Z,102544.00
2023-02-28T18:13:17.673Z,102552.46
2023-02-28T18:15:46.344Z,102547.66
2023-02-28T18:18:16.833Z,102545.96
2023-02-28T18:20:45.485Z,102543.77
2023-02-28T18:23:13.782Z,102536.61
2023-02-28T18:25:42.575Z,102532.80
2023-02-28T18:28:11.045Z,102531.23
2023-02-28T18:30:40.050Z,102533.70
2023-02-28T18:33:08.441Z,102534.14
2023-02-28T18:35:37.184Z,102536.65
2023-02-28T18:38:15.814Z,102531.88
2023-02-28T18:40:53.257Z,102530.36
2023-02-28T18:43:21.825Z,102529.30
2023-02-28T18:45:50.407Z,102534.96
2023-02-28T18:48:20.082Z,102540.02
2023-02-28T18:50:48.811Z,102539.41
2023-02-28T18:53:18.442Z,102539.95
2023-02-28T18:55:46.807Z,102542.04
2023-02-28T18:58:15.701Z,102545.38
2023-02-28T19:00:47.869Z,102549.67
2023-02-28T19:03:16.361Z,102546.73
2023-02-28T19:05:44.850Z,102543.05
2023-02-28T19:08:13.639Z,102545.95
2023-02-28T19:10:42.234Z,102544.58
2023-02-28T19:13:10.615Z,102544.44
2023-02-28T19:15:38.799Z,102547.17
2023-02-28T19:18:07.522Z,102546.81
2023-02-28T19:20:36.921Z,102544.32
2023-02-28T19:23:05.579Z,102539.45
2023-02-28T19:25:33.868Z,102538.96
2023-02-28T19:28:02.161Z,102538.34
2023-02-28T19:30:31.040Z,102538.29
2023-02-28T19:32:59.229Z,102542.95
2023-02-28T19:35:27.690Z,102539.63
2023-02-28T19:37:58.267Z,102541.45
2023-02-28T19:40:27.460Z,102539.52
2023-02-28T19:42:55.729Z,102538.05
2023-02-28T19:45:24.522Z,102537.10
2023-02-28T19:47:53.521Z,102536.06
2023-02-28T19:50:23.135Z,102532.34
2023-02-28T19:52:51.732Z,102533.07
2023-02-28T19:55:20.420Z,102527.58
2023-02-28T19:57:48.703Z,102528.68
2023-02-28T20:00:19.109Z,102531.61
2023-02-28T20:02:47.513Z,102531.35
2023-02-28T20:05:16.112Z,102528.41
2023-02-28T20:07:44.598Z,102528.51
2023-02-28T20:10:13.287Z,102524.61
2023-02-28T20:12:41.983Z,102522.24
2023-02-28T20:15:10.969Z,102518.70
2023-02-28T20:17:40.994Z,102518.27
2023-02-28T20:20:11.795Z,102515.14
2023-02-28T20:22:40.229Z,102518.23
2023-02-28T20:25:11.610Z,102525.39
2023-02-28T20:27:40.167Z,102524.02
2023-02-28T20:30:09.776Z,102525.64
2023-02-28T20:32:39.862Z,102520.80
2023-02-28T20:35:11.730Z,102522.52
2023-02-28T20:37:40.354Z,102522.02
2023-02-28T20:40:10.196Z,102520.39
2023-02-28T20:42:38.557Z,102517.45
2023-02-28T20:45:08.107Z,102517.77
2023-02-28T20:47:36.981Z,102513.88
2023-02-28T20:50:09.462Z,102506.65
2023-02-28T20:52:37.820Z,102506.73
2023-02-28T20:55:07.350Z,102511.41
2023-02-28T20:57:35.821Z,102508.48
2023-02-28T21:00:09.731Z,102507.58
2023-02-28T21:02:38.268Z,102500.95
2023-02-28T21:05:07.407Z,102504.48
2023-02-28T21:07:35.708Z,102502.62
2023-02-28T21:10:04.406Z,102502.36
2023-02-28T21:12:32.782Z,102503.06
2023-02-28T21:15:01.176Z,102496.92
2023-02-28T21:17:29.859Z,102495.05
2023-02-28T21:19:58.139Z,102492.85
2023-02-28T21:22:26.318Z,102499.77
2023-02-28T21:24:54.704Z,102498.52
2023-02-28T21:27:23.292Z,102501.89
2023-02-28T21:29:51.677Z,102502.71
2023-02-28T21:32:20.126Z,102508.68
2023-02-28T21:34:48.758Z,102512.80
2023-02-28T21:37:17.051Z,102510.70
2023-02-28T21:39:46.436Z,102508.99
2023-02-28T21:42:14.934Z,102508.45
2023-02-28T21:44:43.519Z,102508.71
2023-02-28T21:47:12.418Z,102513.72
2023-02-28T21:49:41.002Z,102506.23
2023-02-28T21:52:09.385Z,102506.81
2023-02-28T21:54:37.977Z,102507.80
2023-02-28T21:57:06.404Z,102509.56
2023-02-28T21:59:35.466Z,102504.13
2023-02-28T22:02:05.706Z,102502.27
2023-02-28T22:04:34.998Z,102499.94
2023-02-28T22:07:03.577Z,102496.42
2023-02-28T22:09:31.962Z,102496.39
2023-02-28T22:12:00.249Z,102496.98
2023-02-28T22:14:28.635Z,102497.76
2023-02-28T22:16:57.764Z,102498.63
2023-02-28T22:19:28.321Z,102494.27
2023-02-28T22:21:57.772Z,102493.70
2023-02-28T22:24:26.258Z,102495.30
2023-02-28T22:26:54.649Z,102500.27
2023-02-28T22:29:23.354Z,102505.45
2023-02-28T22:31:51.879Z,102503.58
2023-02-28T22:34:20.335Z,102502.97
2023-02-28T22:36:48.807Z,102503.23
2023-02-28T22:39:17.192Z,102499.40
2023-02-28T22:41:45.781Z,102502.60
2023-02-28T22:44:14.669Z,102504.59
2023-02-28T22:46:43.492Z,102503.42
2023-02-28T22:49:12.147Z,102503.34
2023-02-28T22:51:40.541Z,102506.80
2023-02-28T22:54:09.534Z,102506.05
2023-02-28T22:56:38.029Z,102506.92
2023-02-28T22:59:07.026Z,102509.11
2023-02-28T23:01:35.834Z,102508.23
2023-02-28T23:04:04.685Z,102509.15
2023-02-28T23:06:42.160Z,102513.25
2023-02-28T23:09:18.282Z,102512.84
2023-02-28T23:11:50.018Z,102509.80
2023-02-28T23:14:19.930Z,102514.48
2023-02-28T23:16:57.207Z,102517.30
2023-02-28T23:19:31.058Z,102515.48
2023-02-28T23:22:00.947Z,102517.31
2023-02-28T23:24:32.573Z,102518.61
2023-02-28T23:27:04.997Z,102514.34
2023-02-28T23:29:34.808Z,102513.73
2023-02-28T23:32:03.937Z,102512.69
2023-02-28T23:34:32.611Z,102514.34
2023-02-28T23:37:02.229Z,102514.27
2023-02-28T23:39:31.744Z,102510.86
2023-02-28T23:42:02.088Z,102509.02
2023-02-28T23:44:31.991Z,102513.04
2023-02-28T23:47:01.087Z,102509.60
2023-02-28T23:49:29.762Z,102505.87
2023-02-28T23:51:58.152Z,102507.69
2023-02-28T23:54:26.634Z,102508.52
2023-02-28T23:56:55.116Z,102504.98
2023-02-28T23:59:23.509Z,102502.70
